Time;durP1;ratioP1;P1;durP2;ratioP2;P2;SDS_P1;SDS_P2;PMS_P1;PMS_P2;Temp;Humidity;BMP_temperature;BMP_pressure;BME280_temperature;BME280_humidity;BME280_pressure;Samples;Min_cycle;Max_cycle;Signal;HPM_P1;HPM_P2
2022/11/03 00:01:12;;;;;;;4.97;2.90;;;10.60;99.90;;;;;;5131923;27;20201;-68
2022/11/03 00:03:39;;;;;;;5.77;2.87;;;10.60;99.90;;;;;;5131582;27;20233;-68
2022/11/03 00:06:06;;;;;;;3.30;2.60;;;10.50;99.90;;;;;;5111366;27;20218;-68
2022/11/03 00:08:36;;;;;;;4.77;2.73;;;10.50;99.90;;;;;;5111217;28;20202;-68
2022/11/03 00:11:05;;;;;;;3.50;2.50;;;10.50;99.90;;;;;;5111006;28;20202;-67
2022/11/03 00:13:32;;;;;;;6.80;2.43;;;10.40;99.90;;;;;;5130606;27;20197;-68
2022/11/03 00:15:59;;;;;;;2.77;2.47;;;10.50;99.90;;;;;;5131520;27;20200;-68
2022/11/03 00:18:26;;;;;;;6.97;3.07;;;10.50;99.90;;;;;;5127518;27;20241;-68
2022/11/03 00:20:57;;;;;;;4.73;2.57;;;10.40;99.90;;;;;;5111011;28;20206;-67
2022/11/03 00:23:26;;;;;;;4.03;2.43;;;10.40;99.90;;;;;;5118896;27;20208;-68
2022/11/03 00:25:54;;;;;;;4.37;2.70;;;10.40;99.90;;;;;;5131031;27;20256;-67
2022/11/03 00:28:21;;;;;;;2.67;2.40;;;10.40;99.90;;;;;;5113122;27;20985;-68
2022/11/03 00:30:47;;;;;;;6.17;2.70;;;10.30;99.90;;;;;;5116517;27;20208;-68
2022/11/03 00:33:14;;;;;;;4.03;2.60;;;10.30;99.90;;;;;;5131121;27;20212;-68
2022/11/03 00:35:41;;;;;;;6.20;2.47;;;10.30;99.90;;;;;;5130422;27;20548;-68
2022/11/03 00:38:08;;;;;;;6.10;2.47;;;10.30;99.90;;;;;;5121473;27;20238;-67
2022/11/03 00:40:34;;;;;;;5.80;2.63;;;10.30;99.90;;;;;;5110527;28;20214;-67
2022/11/03 00:43:02;;;;;;;4.83;3.03;;;10.20;99.90;;;;;;5110327;28;20209;-67
2022/11/03 00:45:29;;;;;;;4.03;2.37;;;10.20;99.90;;;;;;5113042;27;20201;-67
2022/11/03 00:50:41;;;;;;;4.20;2.40;;;10.20;99.90;;;;;;5130376;27;20562;-68
2022/11/03 00:53:08;;;;;;;3.47;2.57;;;10.20;99.90;;;;;;5130593;27;20236;-67
2022/11/03 00:55:34;;;;;;;4.33;2.27;;;10.20;99.90;;;;;;5130028;27;20209;-68
2022/11/03 00:58:03;;;;;;;3.23;2.30;;;10.20;99.90;;;;;;5110039;28;20238;-67
2022/11/03 01:00:29;;;;;;;4.73;2.60;;;10.10;99.90;;;;;;5111696;27;20206;-67
2022/11/03 01:02:56;;;;;;;4.97;2.77;;;10.10;99.90;;;;;;5113181;27;20236;-68
2022/11/03 01:08:07;;;;;;;8.57;2.60;;;10.10;99.90;;;;;;5125017;27;20247;-68
2022/11/03 01:11:42;;;;;;;4.83;2.57;;;10.10;99.90;;;;;;5109824;28;20201;-68
2022/11/03 01:13:26;;;;;;;5.07;2.40;;;10.10;99.90;;;;;;5109452;28;20289;-68
2022/11/03 01:15:57;;;;;;;4.43;2.30;;;10.10;99.90;;;;;;5109664;28;20397;-68
2022/11/03 01:18:24;;;;;;;11.23;2.50;;;10.10;99.90;;;;;;5109758;28;20250;-68
2022/11/03 01:20:55;;;;;;;2.67;2.47;;;10.00;99.90;;;;;;5127571;27;20557;-68
2022/11/03 01:23:22;;;;;;;4.37;2.40;;;10.10;99.90;;;;;;5130361;27;20200;-68
2022/11/03 01:25:49;;;;;;;3.20;2.43;;;10.00;99.90;;;;;;5130053;27;20201;-68
2022/11/03 01:28:16;;;;;;;7.63;2.73;;;10.00;99.90;;;;;;5129943;27;20699;-68
2022/11/03 01:30:44;;;;;;;4.67;2.47;;;9.90;99.90;;;;;;5129997;27;20201;-68
2022/11/03 01:33:10;;;;;;;5.10;2.63;;;9.90;99.90;;;;;;5130168;27;20212;-68
2022/11/03 01:35:37;;;;;;;4.67;2.60;;;9.90;99.90;;;;;;5129794;27;20210;-68
2022/11/03 01:38:04;;;;;;;7.40;2.60;;;9.90;99.90;;;;;;5121406;27;20222;-68
2022/11/03 01:40:32;;;;;;;4.83;2.93;;;9.90;99.90;;;;;;5109452;28;20206;-67
2022/11/03 01:43:17;;;;;;;4.50;2.27;;;9.80;99.90;;;;;;5108923;28;20202;-68
2022/11/03 01:45:47;;;;;;;7.93;3.27;;;9.80;99.90;;;;;;5128404;27;20209;-67
2022/11/03 01:48:14;;;;;;;6.97;3.03;;;9.80;99.90;;;;;;5129711;27;20201;-67
2022/11/03 01:50:43;;;;;;;5.50;2.80;;;9.80;99.90;;;;;;5129475;27;20209;-67
2022/11/03 01:53:12;;;;;;;5.43;2.63;;;9.70;99.90;;;;;;5129800;27;20595;-68
2022/11/03 01:55:39;;;;;;;5.17;2.23;;;9.70;99.90;;;;;;5128269;27;20201;-67
2022/11/03 01:58:11;;;;;;;4.53;2.60;;;9.70;99.90;;;;;;5108845;28;20268;-68
2022/11/03 02:00:39;;;;;;;6.63;2.93;;;9.70;99.90;;;;;;5108709;28;20186;-68
2022/11/03 02:03:07;;;;;;;3.33;2.10;;;9.70;99.90;;;;;;5110262;27;20238;-67
2022/11/03 02:05:34;;;;;;;4.20;2.77;;;9.60;99.90;;;;;;5129369;27;20211;-68
2022/11/03 02:08:07;;;;;;;6.53;2.57;;;9.60;99.90;;;;;;5129544;27;20224;-68
2022/11/03 02:10:35;;;;;;;7.70;2.50;;;9.60;99.90;;;;;;5129209;27;20652;-67
2022/11/03 02:13:07;;;;;;;4.60;2.53;;;9.60;99.90;;;;;;5129264;27;20570;-67
2022/11/03 02:15:34;;;;;;;5.47;2.57;;;9.60;99.90;;;;;;5116438;27;20200;-67
2022/11/03 02:18:05;;;;;;;4.27;2.50;;;9.60;99.90;;;;;;5129158;27;20229;-68
2022/11/03 02:20:33;;;;;;;5.27;2.13;;;9.60;99.90;;;;;;5113510;27;20198;-68
2022/11/03 02:23:25;;;;;;;4.63;2.50;;;9.60;99.90;;;;;;5108372;28;20206;-68
2022/11/03 02:25:54;;;;;;;7.63;2.60;;;9.60;99.90;;;;;;5106819;28;20210;-68
2022/11/03 02:28:24;;;;;;;3.50;2.50;;;9.60;99.90;;;;;;5108514;28;20569;-68
2022/11/03 02:31:01;;;;;;;3.50;2.30;;;9.50;99.90;;;;;;5119886;27;20205;-68
2022/11/03 02:33:35;;;;;;;4.97;2.00;;;9.50;99.90;;;;;;5129241;27;20190;-68
2022/11/03 02:36:10;;;;;;;4.37;2.67;;;9.50;99.90;;;;;;5128907;27;20185;-68
2022/11/03 02:38:44;;;;;;;5.80;2.73;;;9.50;99.90;;;;;;5128684;27;20271;-68
2022/11/03 02:41:14;;;;;;;6.37;2.80;;;9.50;99.90;;;;;;5129054;27;20205;-68
2022/11/03 02:43:43;;;;;;;3.47;3.13;;;9.50;99.90;;;;;;5128318;27;20606;-68
2022/11/03 02:46:11;;;;;;;6.27;2.67;;;9.40;99.90;;;;;;5128475;27;20961;-67
2022/11/03 02:48:38;;;;;;;4.23;2.40;;;9.40;99.90;;;;;;5128621;27;20211;-67
2022/11/03 02:51:05;;;;;;;3.20;2.10;;;9.30;99.90;;;;;;5128817;27;20201;-67
2022/11/03 02:53:39;;;;;;;5.27;2.13;;;9.30;99.90;;;;;;5128257;27;20229;-67
2022/11/03 02:56:10;;;;;;;4.50;2.20;;;9.30;99.90;;;;;;5123724;27;20571;-67
2022/11/03 02:58:46;;;;;;;3.97;2.20;;;9.30;99.90;;;;;;5110372;28;20218;-68
2022/11/03 03:01:18;;;;;;;6.77;2.50;;;9.30;99.90;;;;;;5118234;27;20202;-68
2022/11/03 03:03:47;;;;;;;4.97;2.77;;;9.30;99.90;;;;;;5107621;28;20245;-68
2022/11/03 03:06:19;;;;;;;7.30;2.63;;;9.30;99.90;;;;;;5108041;28;20197;-68
2022/11/03 03:08:50;;;;;;;4.73;2.20;;;9.30;99.90;;;;;;5108120;28;20203;-68
2022/11/03 03:11:35;;;;;;;5.40;2.30;;;9.30;99.90;;;;;;5107951;28;20199;-67
2022/11/03 03:14:09;;;;;;;5.43;2.20;;;9.30;99.90;;;;;;5108136;28;20189;-68
2022/11/03 03:16:43;;;;;;;3.77;2.67;;;9.20;99.90;;;;;;5118036;28;20193;-67
2022/11/03 03:19:17;;;;;;;3.37;2.30;;;9.30;99.90;;;;;;5117791;27;20422;-68
2022/11/03 03:21:47;;;;;;;4.47;2.43;;;9.20;99.90;;;;;;5107706;28;20640;-68
2022/11/03 03:24:22;;;;;;;5.70;2.60;;;9.20;99.90;;;;;;5107921;28;20202;-68
2022/11/03 03:26:50;;;;;;;4.03;2.70;;;9.20;99.90;;;;;;5118430;28;20212;-68
2022/11/03 03:29:22;;;;;;;7.33;2.77;;;9.20;99.90;;;;;;5128146;27;20213;-68
2022/11/03 03:31:54;;;;;;;6.03;2.30;;;9.20;99.90;;;;;;5127817;27;20200;-68
2022/11/03 03:34:23;;;;;;;6.77;2.50;;;9.20;99.90;;;;;;5128353;27;20216;-68
2022/11/03 03:36:51;;;;;;;4.03;2.40;;;9.20;99.90;;;;;;5127884;27;20695;-68
2022/11/03 03:39:19;;;;;;;4.60;2.50;;;9.20;99.90;;;;;;5109315;27;20222;-68
2022/11/03 03:41:48;;;;;;;6.50;2.60;;;9.20;99.90;;;;;;5107665;28;20205;-68
2022/11/03 03:44:16;;;;;;;5.63;2.80;;;9.10;99.90;;;;;;5107595;28;20209;-67
2022/11/03 03:46:49;;;;;;;4.33;2.37;;;9.10;99.90;;;;;;5107375;28;20274;-67
2022/11/03 03:49:15;;;;;;;5.30;2.40;;;9.10;99.90;;;;;;5111633;28;20212;-67
2022/11/03 03:51:43;;;;;;;8.63;2.70;;;9.10;99.90;;;;;;5127626;27;20205;-67
2022/11/03 03:54:09;;;;;;;5.20;2.87;;;9.10;99.90;;;;;;5127640;27;20702;-67
2022/11/03 03:56:42;;;;;;;4.60;2.20;;;9.10;99.90;;;;;;5118357;27;20214;-67
2022/11/03 03:59:09;;;;;;;4.83;2.53;;;9.10;99.90;;;;;;5107605;28;20225;-67
2022/11/03 04:01:36;;;;;;;4.37;2.60;;;9.00;99.90;;;;;;5107456;28;20205;-67
2022/11/03 04:04:04;;;;;;;3.47;2.23;;;9.10;99.90;;;;;;5106976;28;20234;-68
2022/11/03 04:06:31;;;;;;;5.50;2.60;;;9.10;99.90;;;;;;5107627;28;20209;-67
2022/11/03 04:08:57;;;;;;;5.00;2.83;;;9.10;99.90;;;;;;5115529;27;20222;-67
2022/11/03 04:22:23;;;;;;;3.57;2.50;;;9.00;99.90;;;;;;5131145;27;20193;-67
2022/11/03 04:24:51;;;;;;;4.87;2.73;;;9.00;99.90;;;;;;5130819;27;20740;-67
2022/11/03 04:27:30;;;;;;;3.97;2.43;;;9.00;99.90;;;;;;5125028;27;20209;-68
2022/11/03 04:30:00;;;;;;;5.63;2.63;;;9.00;99.90;;;;;;5131057;27;20212;-68
2022/11/03 04:32:27;;;;;;;4.67;3.03;;;9.00;99.90;;;;;;5131027;27;20900;-68
2022/11/03 04:34:55;;;;;;;3.70;2.30;;;9.00;99.90;;;;;;5131034;27;20266;-68
2022/11/03 04:37:21;;;;;;;7.57;2.33;;;9.00;99.90;;;;;;5128739;27;20210;-68
2022/11/03 04:39:48;;;;;;;4.33;2.30;;;9.00;99.90;;;;;;5123802;27;20695;-68
2022/11/03 04:42:18;;;;;;;4.80;2.37;;;9.00;99.90;;;;;;5131069;27;20216;-68
2022/11/03 04:44:46;;;;;;;3.47;2.37;;;9.00;99.90;;;;;;5130253;27;20211;-69
2022/11/03 04:47:14;;;;;;;3.90;2.40;;;9.00;99.90;;;;;;5131011;27;20228;-68
2022/11/03 04:49:41;;;;;;;4.27;2.40;;;8.90;99.90;;;;;;5130330;27;20258;-68
2022/11/03 04:52:16;;;;;;;5.23;2.53;;;8.80;99.90;;;;;;5130877;27;20205;-68
2022/11/03 04:54:43;;;;;;;9.87;2.57;;;8.80;99.90;;;;;;5130823;27;20200;-68
2022/11/03 04:57:13;;;;;;;6.87;3.17;;;8.80;99.90;;;;;;5116611;27;20229;-68
2022/11/03 04:59:41;;;;;;;4.97;2.13;;;8.80;99.90;;;;;;5109973;28;20253;-68
2022/11/03 05:02:13;;;;;;;3.93;1.90;;;8.80;99.90;;;;;;5110066;28;20213;-68
2022/11/03 05:04:41;;;;;;;5.67;2.30;;;8.70;99.90;;;;;;5109507;28;20250;-68
2022/11/03 05:07:28;;;;;;;4.57;2.47;;;8.70;99.90;;;;;;5109738;28;20205;-68
2022/11/03 05:09:55;;;;;;;5.97;2.43;;;8.70;99.90;;;;;;5110157;28;20190;-68
2022/11/03 05:12:22;;;;;;;7.43;2.47;;;8.70;99.90;;;;;;5109945;28;20217;-68
2022/11/03 05:14:49;;;;;;;5.13;2.60;;;8.70;99.90;;;;;;5109525;28;20213;-68
2022/11/03 05:17:22;;;;;;;9.10;3.37;;;8.70;99.90;;;;;;5109831;28;20213;-68
2022/11/03 05:19:51;;;;;;;5.13;2.40;;;8.70;99.90;;;;;;5125377;27;20221;-68
2022/11/03 05:22:23;;;;;;;7.03;2.30;;;8.80;99.90;;;;;;5128923;27;20217;-68
2022/11/03 05:24:55;;;;;;;6.13;2.37;;;8.80;99.90;;;;;;5130023;27;20197;-67
2022/11/03 05:27:23;;;;;;;4.60;2.70;;;8.70;99.90;;;;;;5129639;27;20206;-67
2022/11/03 05:29:53;;;;;;;6.07;2.23;;;8.70;99.90;;;;;;5129530;27;20201;-67
2022/11/03 05:32:25;;;;;;;6.83;2.70;;;8.70;99.90;;;;;;5129364;27;20193;-67
2022/11/03 05:34:54;;;;;;;7.53;2.40;;;8.70;99.90;;;;;;5129687;27;20190;-67
2022/11/03 05:37:26;;;;;;;2.80;2.37;;;8.70;99.90;;;;;;5127830;27;20220;-67
2022/11/03 05:39:55;;;;;;;7.47;2.57;;;8.70;99.90;;;;;;5109244;28;20818;-67
2022/11/03 05:42:34;;;;;;;5.83;3.10;;;8.70;99.90;;;;;;5108863;28;20214;-67
2022/11/03 05:45:02;;;;;;;4.30;2.47;;;8.70;99.90;;;;;;5114487;27;20195;-67
2022/11/03 05:47:34;;;;;;;3.17;2.10;;;8.70;99.90;;;;;;5129533;27;20197;-67
2022/11/03 05:50:13;;;;;;;4.90;2.40;;;8.70;99.90;;;;;;5129699;27;20209;-67
2022/11/03 05:52:41;;;;;;;3.00;2.30;;;8.70;99.90;;;;;;5129213;27;20225;-67
2022/11/03 05:55:21;;;;;;;5.90;2.53;;;8.70;99.90;;;;;;5129644;27;20209;-67
2022/11/03 05:57:47;;;;;;;3.00;2.10;;;8.70;99.90;;;;;;5129124;27;20204;-67
2022/11/03 06:00:26;;;;;;;5.30;2.60;;;8.70;99.90;;;;;;5129190;27;20232;-67
2022/11/03 06:02:54;;;;;;;5.83;2.33;;;8.80;99.90;;;;;;5128799;27;20539;-67
2022/11/03 06:05:22;;;;;;;6.17;2.60;;;8.70;99.90;;;;;;5129477;27;20297;-66
2022/11/03 06:07:54;;;;;;;3.67;2.10;;;8.80;99.90;;;;;;5129011;27;20579;-66
2022/11/03 06:10:25;;;;;;;4.63;2.53;;;8.80;99.90;;;;;;5129110;27;20193;-66
2022/11/03 06:12:55;;;;;;;6.87;2.40;;;8.80;99.90;;;;;;5128921;27;20224;-66
2022/11/03 06:15:29;;;;;;;4.37;2.57;;;8.80;99.90;;;;;;5128617;27;20201;-67
2022/11/03 06:17:56;;;;;;;8.63;2.40;;;8.80;99.90;;;;;;5128857;27;20201;-67
2022/11/03 06:20:23;;;;;;;4.47;2.10;;;8.80;99.90;;;;;;5124752;27;20222;-67
2022/11/03 06:22:54;;;;;;;3.90;2.33;;;8.90;99.90;;;;;;5129026;27;20701;-67
2022/11/03 06:25:26;;;;;;;5.80;2.83;;;8.90;99.90;;;;;;5129222;27;20215;-67
2022/11/03 06:27:55;;;;;;;3.50;1.97;;;8.90;99.90;;;;;;5109018;27;20556;-67
2022/11/03 06:30:26;;;;;;;3.87;2.27;;;8.90;99.90;;;;;;5108499;28;20202;-67
2022/11/03 06:32:53;;;;;;;5.10;2.60;;;8.90;99.90;;;;;;5107698;28;20202;-67
2022/11/03 06:35:20;;;;;;;4.97;2.70;;;8.80;99.90;;;;;;5108649;28;20210;-67
2022/11/03 06:37:47;;;;;;;4.87;2.47;;;8.80;99.90;;;;;;5124067;27;20205;-67
2022/11/03 06:40:37;;;;;;;2.30;2.10;;;8.80;99.90;;;;;;5129102;27;20229;-67
2022/11/03 06:43:19;;;;;;;5.20;2.43;;;8.70;99.90;;;;;;5128517;27;20186;-67
2022/11/03 06:45:50;;;;;;;3.43;2.60;;;8.70;99.90;;;;;;5122106;27;20198;-67
2022/11/03 06:48:25;;;;;;;5.53;2.63;;;8.60;99.90;;;;;;5108371;28;20190;-66
2022/11/03 06:50:53;;;;;;;5.53;2.80;;;8.60;99.90;;;;;;5113292;27;20223;-66
2022/11/03 06:53:23;;;;;;;3.57;2.57;;;8.60;99.90;;;;;;5128518;27;20228;-67
2022/11/03 06:55:51;;;;;;;6.20;2.90;;;8.60;99.90;;;;;;5128959;27;20201;-67
2022/11/03 06:58:26;;;;;;;6.37;2.30;;;8.50;99.90;;;;;;5128535;27;20209;-67
2022/11/03 07:00:54;;;;;;;5.73;2.97;;;8.50;99.90;;;;;;5128166;27;20683;-67
2022/11/03 07:03:25;;;;;;;4.27;2.60;;;8.50;99.90;;;;;;5128139;27;20233;-67
2022/11/03 07:05:57;;;;;;;4.10;2.50;;;8.50;99.90;;;;;;5128346;27;20244;-67
2022/11/03 07:08:27;;;;;;;4.17;2.50;;;8.50;99.90;;;;;;5128736;27;20190;-67
2022/11/03 07:11:02;;;;;;;3.77;2.77;;;8.50;99.90;;;;;;5128620;27;20201;-67
2022/11/03 07:13:32;;;;;;;6.07;2.77;;;8.40;99.90;;;;;;5127971;27;20652;-67
2022/11/03 07:15:59;;;;;;;5.00;2.80;;;8.50;99.90;;;;;;5127484;27;20202;-68
2022/11/03 07:18:29;;;;;;;4.90;2.83;;;8.50;99.90;;;;;;5127513;27;20205;-67
2022/11/03 07:20:58;;;;;;;5.33;2.60;;;8.50;99.90;;;;;;5127132;27;20719;-67
2022/11/03 07:23:28;;;;;;;5.67;2.70;;;8.60;99.90;;;;;;5128173;27;20204;-67
2022/11/03 07:26:00;;;;;;;6.47;2.70;;;8.60;99.90;;;;;;5124682;27;20205;-67
2022/11/03 07:28:32;;;;;;;8.53;3.17;;;8.70;99.90;;;;;;5107538;28;20194;-67
2022/11/03 07:31:01;;;;;;;5.53;2.93;;;8.80;99.90;;;;;;5112963;28;20235;-67
2022/11/03 07:33:31;;;;;;;4.27;2.40;;;8.90;99.90;;;;;;5127944;27;20206;-67
2022/11/03 07:36:00;;;;;;;4.83;2.63;;;9.00;99.90;;;;;;5108950;27;20210;-66
2022/11/03 07:38:29;;;;;;;5.10;2.40;;;9.00;99.90;;;;;;5107076;28;20718;-67
2022/11/03 07:40:59;;;;;;;6.27;2.57;;;9.10;99.90;;;;;;5116950;28;20703;-67
2022/11/03 07:43:30;;;;;;;4.60;2.60;;;9.20;99.90;;;;;;5127519;27;20648;-67
2022/11/03 07:45:58;;;;;;;3.67;2.30;;;9.30;99.90;;;;;;5131144;27;20193;-66
2022/11/03 07:48:27;;;;;;;6.90;2.90;;;9.40;99.90;;;;;;5131570;27;20198;-66
2022/11/03 07:50:55;;;;;;;6.87;3.20;;;9.40;99.90;;;;;;5131779;27;20216;-67
2022/11/03 07:53:28;;;;;;;5.63;2.70;;;9.50;99.90;;;;;;5128323;27;20225;-67
2022/11/03 07:55:55;;;;;;;5.17;2.70;;;9.50;99.90;;;;;;5128439;27;20276;-67
2022/11/03 07:58:29;;;;;;;5.53;2.43;;;9.50;99.90;;;;;;5113001;27;20729;-66
2022/11/03 08:01:00;;;;;;;4.67;2.83;;;9.60;99.90;;;;;;5110684;28;20229;-67
2022/11/03 08:03:44;;;;;;;3.67;2.63;;;9.50;99.90;;;;;;5129500;27;20650;-67
2022/11/03 08:06:11;;;;;;;7.30;3.10;;;9.60;99.90;;;;;;5131268;27;20192;-67
2022/11/03 08:08:37;;;;;;;6.47;2.97;;;9.60;99.90;;;;;;5131140;27;20216;-67
2022/11/03 08:11:05;;;;;;;7.13;2.60;;;9.60;99.90;;;;;;5130786;27;20664;-66
2022/11/03 08:13:33;;;;;;;4.93;2.80;;;9.60;99.90;;;;;;5131334;27;20197;-66
2022/11/03 08:16:00;;;;;;;5.50;2.77;;;9.70;99.90;;;;;;5131277;27;20216;-67
2022/11/03 08:18:26;;;;;;;5.37;2.80;;;9.70;99.90;;;;;;5127033;27;20221;-67
2022/11/03 08:20:53;;;;;;;7.00;2.90;;;9.70;99.90;;;;;;5110704;28;20534;-67
2022/11/03 08:23:20;;;;;;;5.70;2.97;;;9.80;99.90;;;;;;5110317;28;20210;-67
2022/11/03 08:25:46;;;;;;;4.27;2.80;;;9.80;99.90;;;;;;5120861;27;20206;-67
2022/11/03 08:28:14;;;;;;;4.97;2.60;;;9.80;99.90;;;;;;5128751;27;20202;-66
2022/11/03 08:30:42;;;;;;;4.13;2.43;;;9.90;99.90;;;;;;5128437;27;20292;-66
2022/11/03 08:33:08;;;;;;;4.87;2.67;;;10.00;99.90;;;;;;5129544;27;20205;-67
2022/11/03 08:35:35;;;;;;;8.77;4.47;;;10.10;99.90;;;;;;5128922;27;20962;-67
2022/11/03 08:38:02;;;;;;;5.40;3.90;;;10.20;99.90;;;;;;5128459;27;20204;-67
2022/11/03 08:40:29;;;;;;;5.37;2.30;;;10.30;99.90;;;;;;5128524;27;20232;-67
2022/11/03 08:42:55;;;;;;;7.23;2.80;;;10.30;99.90;;;;;;5128640;27;20291;-67
2022/11/03 08:45:22;;;;;;;3.67;2.37;;;10.40;99.90;;;;;;5128490;27;20202;-67
2022/11/03 08:47:51;;;;;;;6.07;2.47;;;10.50;99.90;;;;;;5128125;27;20223;-67
2022/11/03 08:50:17;;;;;;;3.63;2.37;;;10.50;99.90;;;;;;5128165;27;20217;-67
2022/11/03 08:52:44;;;;;;;5.90;2.90;;;10.60;99.90;;;;;;5128168;27;20221;-67
2022/11/03 08:55:11;;;;;;;4.63;2.60;;;10.70;99.90;;;;;;5127983;27;20763;-67
2022/11/03 08:57:38;;;;;;;5.23;2.57;;;10.80;99.90;;;;;;5128135;27;20205;-67
2022/11/03 09:00:06;;;;;;;5.93;2.77;;;10.90;99.90;;;;;;5128475;27;20233;-67
2022/11/03 09:02:33;;;;;;;6.60;2.13;;;10.90;99.90;;;;;;5128331;27;20248;-67
2022/11/03 09:05:02;;;;;;;5.77;2.33;;;11.00;99.90;;;;;;5128248;27;20190;-67
2022/11/03 09:07:29;;;;;;;6.50;2.60;;;11.00;99.90;;;;;;5128545;27;20221;-67
2022/11/03 09:09:56;;;;;;;4.13;2.60;;;11.10;99.90;;;;;;5128394;27;20213;-67
2022/11/03 09:12:22;;;;;;;3.07;2.43;;;11.10;99.90;;;;;;5128395;27;20197;-67
2022/11/03 09:14:49;;;;;;;7.07;2.80;;;11.10;99.90;;;;;;5128262;27;20209;-65
2022/11/03 09:17:16;;;;;;;3.10;1.83;;;11.20;99.90;;;;;;5128670;27;20212;-66
2022/11/03 09:19:43;;;;;;;4.77;2.50;;;11.30;99.90;;;;;;5127415;27;20202;-67
2022/11/03 09:22:11;;;;;;;2.77;2.20;;;11.30;99.90;;;;;;5128062;27;20205;-68
2022/11/03 09:24:37;;;;;;;3.90;2.50;;;11.30;99.90;;;;;;5127837;27;20213;-67
2022/11/03 09:27:04;;;;;;;3.63;2.20;;;11.40;99.90;;;;;;5120692;27;20202;-67
2022/11/03 09:29:31;;;;;;;8.47;2.57;;;11.40;99.90;;;;;;5106989;28;20214;-67
2022/11/03 09:31:58;;;;;;;3.70;2.50;;;11.50;99.90;;;;;;5107152;28;20210;-67
2022/11/03 09:34:25;;;;;;;3.90;2.13;;;11.60;99.90;;;;;;5106771;28;20238;-68
2022/11/03 09:36:52;;;;;;;4.87;2.63;;;11.60;99.90;;;;;;5117797;27;20209;-68
2022/11/03 09:39:20;;;;;;;4.60;2.53;;;11.70;99.90;;;;;;5127033;27;20201;-67
2022/11/03 09:41:46;;;;;;;3.77;2.27;;;11.70;99.90;;;;;;5126729;27;20240;-68
2022/11/03 09:44:13;;;;;;;4.23;2.47;;;11.80;99.90;;;;;;5126675;27;20201;-68
2022/11/03 09:46:40;;;;;;;4.40;1.90;;;11.90;99.90;;;;;;5123232;27;20220;-68
2022/11/03 09:49:07;;;;;;;5.00;1.93;;;12.00;99.90;;;;;;5126575;27;20201;-65
2022/11/03 09:51:36;;;;;;;5.43;2.10;;;12.10;99.90;;;;;;5126924;27;20212;-66
2022/11/03 09:54:04;;;;;;;4.87;2.10;;;12.20;99.90;;;;;;5126730;27;20266;-66
2022/11/03 09:56:36;;;;;;;7.30;2.90;;;12.30;99.90;;;;;;5124047;27;20202;-66
2022/11/03 09:59:07;;;;;;;5.97;2.00;;;12.30;99.90;;;;;;5127577;27;20182;-66
2022/11/03 10:01:34;;;;;;;4.47;2.13;;;12.40;99.90;;;;;;5127196;27;20228;-66
2022/11/03 10:04:01;;;;;;;5.57;2.50;;;12.40;99.90;;;;;;5126564;27;20229;-67
2022/11/03 10:06:29;;;;;;;5.47;2.40;;;12.50;99.90;;;;;;5127065;27;20209;-66
2022/11/03 10:08:56;;;;;;;4.63;2.07;;;12.50;99.90;;;;;;5126489;27;20215;-66
2022/11/03 10:11:22;;;;;;;2.67;1.70;;;12.60;99.90;;;;;;5126931;27;20205;-66
2022/11/03 10:13:55;;;;;;;3.40;2.30;;;12.60;99.90;;;;;;5126797;27;20223;-66
2022/11/03 10:16:24;;;;;;;5.23;1.93;;;12.60;99.90;;;;;;5126968;27;20197;-66
2022/11/03 10:18:51;;;;;;;2.23;1.90;;;12.60;99.90;;;;;;5127066;27;20201;-66
2022/11/03 10:21:20;;;;;;;5.07;2.43;;;12.60;99.90;;;;;;5127168;27;20252;-66
2022/11/03 10:23:49;;;;;;;2.53;1.90;;;12.60;99.90;;;;;;5115504;27;20210;-66
2022/11/03 10:26:17;;;;;;;4.43;1.87;;;12.60;99.90;;;;;;5111827;27;20213;-66
2022/11/03 10:29:00;;;;;;;4.03;2.30;;;12.60;99.90;;;;;;5126158;27;20731;-66
2022/11/03 10:31:36;;;;;;;5.23;1.83;;;12.60;99.90;;;;;;5114241;27;20206;-66
2022/11/03 10:34:03;;;;;;;5.93;1.90;;;12.60;99.90;;;;;;5105995;28;20682;-68
2022/11/03 10:36:31;;;;;;;4.60;2.03;;;12.60;99.90;;;;;;5115123;27;20398;-66
2022/11/03 10:39:00;;;;;;;4.73;2.13;;;12.60;99.90;;;;;;5110650;27;20920;-67
2022/11/03 10:41:28;;;;;;;2.90;1.60;;;12.60;99.90;;;;;;5106068;28;20236;-66
2022/11/03 10:44:18;;;;;;;2.90;1.87;;;12.60;99.90;;;;;;5105928;28;20205;-66
2022/11/03 10:46:57;;;;;;;6.27;1.97;;;12.70;99.90;;;;;;5124685;27;20194;-66
2022/11/03 10:49:24;;;;;;;2.73;1.70;;;12.60;99.90;;;;;;5126521;27;20235;-66
2022/11/03 10:51:53;;;;;;;3.80;1.83;;;12.60;99.90;;;;;;5126147;27;20241;-66
2022/11/03 10:54:22;;;;;;;4.37;2.03;;;12.60;99.90;;;;;;5126486;27;20205;-66
2022/11/03 10:56:50;;;;;;;3.97;1.43;;;12.50;99.90;;;;;;5114907;27;20752;-66
2022/11/03 10:59:20;;;;;;;3.83;1.60;;;12.50;99.90;;;;;;5116025;28;20594;-66
2022/11/03 11:01:47;;;;;;;4.40;1.50;;;12.50;99.90;;;;;;5126247;27;20233;-66
2022/11/03 11:04:16;;;;;;;6.03;2.00;;;12.50;99.90;;;;;;5126167;27;20241;-66
2022/11/03 11:06:46;;;;;;;6.23;1.57;;;12.50;99.90;;;;;;5126455;27;20205;-66
2022/11/03 11:09:17;;;;;;;4.73;1.83;;;12.50;99.90;;;;;;5126374;27;20189;-66
2022/11/03 11:11:59;;;;;;;5.33;1.73;;;12.50;99.90;;;;;;5126316;27;20193;-66
2022/11/03 11:14:38;;;;;;;3.77;1.77;;;12.50;99.90;;;;;;5126212;27;20197;-66
2022/11/03 11:17:05;;;;;;;3.43;1.87;;;12.50;99.90;;;;;;5126606;27;20202;-66
2022/11/03 11:20:11;;;;;;;7.03;1.87;;;12.50;99.90;;;;;;5124799;27;20204;-66
2022/11/03 11:22:42;;;;;;;5.30;1.73;;;12.50;99.90;;;;;;5130453;27;20644;-66
2022/11/03 11:25:09;;;;;;;5.10;1.83;;;12.40;99.90;;;;;;5129911;27;20648;-66
2022/11/03 11:27:57;;;;;;;3.17;1.80;;;12.50;99.90;;;;;;5129949;27;20552;-66
2022/11/03 11:33:48;;;;;;;5.83;2.07;;;12.40;99.90;;;;;;5051421;27;20246;-67
2022/11/03 11:36:25;;;;;;;7.17;1.97;;;12.40;99.90;;;;;;5130325;27;20607;-66
2022/11/03 11:39:03;;;;;;;7.33;1.70;;;12.40;99.90;;;;;;5125736;27;20720;-66
2022/11/03 11:42:07;;;;;;;3.93;1.83;;;12.40;99.90;;;;;;5127666;27;20257;-66
2022/11/03 11:44:53;;;;;;;4.27;1.70;;;12.40;99.90;;;;;;5109076;28;20263;-66
2022/11/03 11:47:49;;;;;;;3.27;1.40;;;12.40;99.90;;;;;;5101428;28;20225;-66
2022/11/03 11:50:21;;;;;;;3.90;1.67;;;12.40;99.90;;;;;;5109047;28;20301;-67
2022/11/03 11:52:52;;;;;;;2.50;1.67;;;12.40;99.90;;;;;;5109273;28;20321;-67
2022/11/03 11:55:28;;;;;;;3.37;1.80;;;12.40;99.90;;;;;;5109446;28;20186;-67
2022/11/03 11:57:56;;;;;;;3.93;2.17;;;12.40;99.90;;;;;;5109421;27;20210;-67
2022/11/03 12:00:25;;;;;;;5.50;2.30;;;12.40;99.90;;;;;;5109637;28;20254;-67
2022/11/03 12:02:53;;;;;;;4.60;2.40;;;12.50;99.90;;;;;;5121536;27;20905;-67
2022/11/03 12:05:22;;;;;;;3.13;2.00;;;12.50;99.90;;;;;;5129738;27;20193;-66
2022/11/03 12:07:49;;;;;;;5.50;2.47;;;12.50;99.90;;;;;;5129167;27;20224;-66
2022/11/03 12:10:17;;;;;;;4.87;1.90;;;12.50;99.90;;;;;;5127917;27;20656;-67
2022/11/03 12:12:46;;;;;;;3.83;1.80;;;12.50;99.90;;;;;;5123768;27;20199;-66
2022/11/03 12:15:53;;;;;;;2.53;1.80;;;12.50;99.90;;;;;;5116645;27;20206;-66
2022/11/03 12:18:34;;;;;;;3.10;1.83;;;12.50;99.90;;;;;;5125652;27;20661;-67
2022/11/03 12:21:01;;;;;;;4.70;1.97;;;12.50;99.90;;;;;;5108399;28;20222;-67
2022/11/03 12:23:36;;;;;;;4.63;1.97;;;12.50;99.90;;;;;;5114830;27;20213;-66
2022/11/03 12:26:04;;;;;;;4.90;1.90;;;12.50;99.90;;;;;;5124642;27;20209;-66
2022/11/03 12:28:34;;;;;;;3.37;2.17;;;12.50;99.90;;;;;;5108467;28;20299;-66
2022/11/03 12:31:00;;;;;;;3.53;1.80;;;12.50;99.90;;;;;;5107801;28;20291;-66
2022/11/03 12:33:28;;;;;;;4.77;2.10;;;12.50;99.90;;;;;;5108267;28;20210;-66
2022/11/03 12:35:55;;;;;;;7.00;1.90;;;12.50;99.90;;;;;;5125989;27;20205;-66
2022/11/03 12:38:22;;;;;;;4.53;2.20;;;12.50;99.90;;;;;;5128355;27;20827;-66
2022/11/03 12:40:49;;;;;;;4.50;1.67;;;12.50;99.90;;;;;;5125656;27;20607;-66
2022/11/03 12:43:16;;;;;;;5.60;2.10;;;12.50;99.90;;;;;;5117629;27;20215;-66
2022/11/03 12:45:44;;;;;;;3.53;1.93;;;12.60;99.90;;;;;;5120983;27;20208;-66
2022/11/03 12:48:11;;;;;;;5.57;3.23;;;12.60;99.90;;;;;;5128715;27;20197;-66
2022/11/03 12:50:38;;;;;;;4.37;1.83;;;12.60;99.90;;;;;;5127154;27;20201;-66
2022/11/03 12:53:06;;;;;;;4.93;2.00;;;12.60;99.90;;;;;;5128470;27;20333;-66
2022/11/03 12:55:33;;;;;;;7.43;2.07;;;12.60;99.90;;;;;;5128558;27;20278;-66
2022/11/03 12:58:00;;;;;;;3.07;1.83;;;12.60;99.90;;;;;;5128421;27;20202;-66
2022/11/03 13:00:26;;;;;;;3.93;1.90;;;12.60;99.90;;;;;;5128416;27;20209;-66
2022/11/03 13:02:55;;;;;;;3.67;2.00;;;12.60;99.90;;;;;;5127968;27;20248;-66
2022/11/03 13:05:21;;;;;;;3.33;1.73;;;12.60;99.90;;;;;;5127700;27;20206;-66
2022/11/03 13:07:48;;;;;;;5.57;2.10;;;12.70;99.90;;;;;;5128268;27;20205;-66
2022/11/03 13:10:15;;;;;;;3.07;1.93;;;12.70;99.90;;;;;;5127903;27;20679;-66
2022/11/03 13:12:44;;;;;;;3.13;1.60;;;12.80;99.90;;;;;;5125675;27;20230;-66
2022/11/03 13:15:13;;;;;;;3.23;2.00;;;12.80;99.90;;;;;;5127578;27;20216;-66
2022/11/03 13:17:40;;;;;;;6.07;2.07;;;12.90;99.90;;;;;;5127439;27;20206;-66
2022/11/03 13:20:09;;;;;;;2.10;1.80;;;12.90;99.90;;;;;;5117019;27;20210;-66
2022/11/03 13:22:38;;;;;;;3.57;1.87;;;13.00;99.90;;;;;;5107102;28;20727;-67
2022/11/03 13:25:05;;;;;;;4.17;2.13;;;13.10;99.90;;;;;;5119197;27;20312;-67
2022/11/03 13:27:32;;;;;;;4.07;2.00;;;13.10;99.90;;;;;;5127589;27;20686;-67